MZBZ/BZE METAR and TAF weather

Enter ICAO airport designator
Station Type Date Time Source
MZBZ METAR 2021/07/28 00:00 UTC NOAA

MZBZ 280000Z 09008KT 9999 FEW022 30/26 A2990 Q1012 NOSIG


Station Type Date Time Source
MZBZ Decoded METAR 2021/07/28 00:00 UTC NOAA

Belize / Phillip Goldston Intl. Airport, Belize (MZBZ) 17-32N 088-18W 5M
Jul 27, 2021 - 08:00 PM EDT / 2021.07.28 0000 UTC
Wind: from the E (090 degrees) at 9 MPH (8 KT):0
Visibility: greater than 7 mile(s):0
Sky conditions: mostly clear
Temperature: 86 F (30 C)
Heat index: 99.3 F (37.4 C):1
Dew Point: 78 F (26 C)
Relative Humidity: 79%
Pressure (altimeter): 29.9 in. Hg (1012 hPa)
ob: MZBZ 280000Z 09008KT 9999 FEW022 30/26 A2990 Q1012 NOSIG
cycle: 0

Station Type Date Time Source
MZBZ TAF 2021/07/28 06:14 UTC NOAA

TAF MZBZ 280300Z 2806/2906 VRB02KT 9999 SCT022 PROB30
TEMPO 2808/2811 5000 TSRA FEW012CB PROB40
TEMPO 2813/2822 5000 SHRA BKN015
BECMG 281 4/2816 07007KT PROB30
TEMPO 2818/2903 4000 TSRA SCT010CB

Example: see airport list